Tidioute, Pennsylvania
Current Conditions -  °F | °C
As of 4:35 AM on Saturday 29 Nov 2014 (Local Time) from KFKL Reporting Station
Overcast Overcast  
Wind Chill: 16°   Ceiling: 6500
Heat Index: 25°   Visibility: 10mi
Dew Point: 18°   Wind: 8mph
Humidity: 74%   Direction: 140°SE
Pressure: 30.11"   Gusts: NA
Location:  41.69°N, 79.4°W
Report Text: KFKL 290935Z AUTO 14007KT 10SM OVC065 M04/M08 A3011 RMK AO1
Loading
Personal Weather Stations






























Interactive Weather Map New forecast layout! Learn more

10-Day Weather Forecast

Advertisements
Track Severe Weather on mobile